Terminal Aerodrome Forecast
Issued by NWS

Home | Current Version | Previous Version | Text Only | Print | Product List | Glossary On
Versions: 1 2 3 4 5 6 7 8 9 10 11 12 13 14 15 16 17 18 19 20 21 22 23 24 25 26 27 28
000
FTUS44 KFWD 260259 AAA
TAFGKY
TAF AMD
KGKY 260259Z 2603/2624 10007KT P6SM SCT050 SCT300
     FM260900 12005KT P6SM FEW025 BKN045 BKN250
      TEMPO 2613/2617 BKN022 BKN045 BKN250
     FM261700 12009KT P6SM VCTS SCT025 BKN040CB BKN250=

USA.gov is the U.S. government's official web portal to all federal, state and local government web resources and services.